Time;durP1;ratioP1;P1;durP2;ratioP2;P2;SDS_P1;SDS_P2;PMS_P1;PMS_P2;Temp;Humidity;BMP_temperature;BMP_pressure;BME280_temperature;BME280_humidity;BME280_pressure;Samples;Min_cycle;Max_cycle;Signal;HPM_P1;HPM_P2
2021/11/01 00:01:40;;;;;;;3.10;1.42;;;15.00;74.80;;;;;;5053912;28;20025;-78
2021/11/01 00:04:05;;;;;;;2.10;1.10;;;15.00;74.80;;;;;;5053381;28;20029;-79
2021/11/01 00:06:32;;;;;;;2.17;1.10;;;15.00;74.80;;;;;;5052982;28;20473;-79
2021/11/01 00:08:59;;;;;;;1.80;1.10;;;15.00;74.80;;;;;;5053051;28;20029;-78
2021/11/01 00:11:25;;;;;;;2.55;1.20;;;14.90;74.80;;;;;;5053453;28;20083;-80
2021/11/01 00:13:51;;;;;;;2.42;1.13;;;14.90;74.80;;;;;;5070116;28;20028;-79
2021/11/01 00:16:16;;;;;;;1.05;0.93;;;14.90;74.80;;;;;;5051567;28;20439;-79
2021/11/01 00:18:42;;;;;;;1.95;1.00;;;14.90;74.80;;;;;;5052720;28;20032;-80
2021/11/01 00:21:08;;;;;;;2.70;1.20;;;14.90;75.50;;;;;;5053042;28;20033;-78
2021/11/01 00:23:34;;;;;;;1.88;1.10;;;14.80;74.80;;;;;;5069401;28;20056;-79
2021/11/01 00:26:00;;;;;;;2.53;1.13;;;14.80;74.80;;;;;;5069571;28;20036;-77
2021/11/01 00:28:26;;;;;;;2.53;1.30;;;14.80;74.90;;;;;;5069599;28;20040;-77
2021/11/01 00:30:56;;;;;;;1.33;1.00;;;14.80;74.90;;;;;;5052622;28;20025;-79
2021/11/01 00:33:22;;;;;;;2.33;1.20;;;14.80;74.90;;;;;;5069505;28;20041;-79
2021/11/01 00:35:49;;;;;;;2.92;1.23;;;14.70;74.80;;;;;;5052302;28;20091;-78
2021/11/01 00:38:15;;;;;;;2.22;1.40;;;14.70;74.90;;;;;;5069578;28;20031;-78
2021/11/01 00:40:41;;;;;;;1.88;1.10;;;14.70;74.90;;;;;;5052529;28;20025;-78
2021/11/01 00:43:08;;;;;;;2.60;1.23;;;14.70;74.90;;;;;;5052355;28;20083;-77
2021/11/01 00:45:34;;;;;;;1.52;1.23;;;14.70;74.90;;;;;;5069547;28;20040;-79
2021/11/01 00:48:00;;;;;;;1.13;1.02;;;14.60;74.80;;;;;;5052227;28;20029;-80
2021/11/01 00:50:27;;;;;;;3.13;1.30;;;14.60;74.90;;;;;;5035748;28;20029;-79
2021/11/01 00:52:55;;;;;;;1.45;1.02;;;14.60;74.90;;;;;;5053384;28;20033;-78
2021/11/01 00:55:24;;;;;;;2.72;1.60;;;14.60;74.90;;;;;;5051935;28;20116;-78
2021/11/01 00:57:50;;;;;;;1.38;1.08;;;14.60;74.90;;;;;;5052707;28;20039;-78
2021/11/01 01:00:16;;;;;;;2.47;1.27;;;14.50;74.90;;;;;;5069034;28;20036;-78
2021/11/01 01:02:44;;;;;;;1.58;1.27;;;14.50;74.90;;;;;;5052221;28;20033;-78
2021/11/01 01:05:12;;;;;;;2.17;1.02;;;14.50;74.90;;;;;;5052402;28;20036;-77
2021/11/01 01:07:38;;;;;;;3.40;1.52;;;14.50;74.90;;;;;;5035683;28;20048;-78
2021/11/01 01:10:05;;;;;;;1.63;1.20;;;14.50;75.00;;;;;;5052696;28;20380;-80
2021/11/01 01:12:30;;;;;;;2.10;1.20;;;14.40;74.90;;;;;;5052226;28;20416;-80
2021/11/01 01:14:58;;;;;;;1.75;1.20;;;14.50;74.90;;;;;;5051898;28;20039;-79
2021/11/01 01:17:26;;;;;;;2.40;1.30;;;14.40;74.90;;;;;;5052071;28;20029;-79
2021/11/01 01:20:03;;;;;;;3.30;1.20;;;14.40;74.90;;;;;;5068522;28;20036;-79
2021/11/01 01:22:29;;;;;;;2.85;1.40;;;14.40;75.00;;;;;;5051850;28;20102;-80
2021/11/01 01:25:09;;;;;;;2.85;1.40;;;14.40;74.90;;;;;;5052100;28;20037;-79
2021/11/01 01:27:37;;;;;;;2.50;1.15;;;14.40;75.10;;;;;;5055411;28;20037;-78
2021/11/01 01:30:05;;;;;;;2.60;1.05;;;14.30;74.90;;;;;;5055861;28;20035;-79
2021/11/01 01:32:31;;;;;;;2.72;1.30;;;14.30;75.00;;;;;;5056638;28;20041;-79
2021/11/01 01:34:57;;;;;;;2.30;1.13;;;14.30;75.00;;;;;;5056013;28;20405;-79
2021/11/01 01:37:23;;;;;;;1.77;1.25;;;14.30;75.00;;;;;;5056356;28;20028;-80
2021/11/01 01:39:49;;;;;;;1.65;1.20;;;14.20;74.90;;;;;;5056306;28;20389;-79
2021/11/01 01:42:15;;;;;;;1.65;1.20;;;14.20;74.90;;;;;;5056824;28;20469;-79
2021/11/01 01:44:41;;;;;;;2.45;1.23;;;14.20;75.00;;;;;;5055522;28;20036;-79
2021/11/01 01:47:07;;;;;;;1.95;1.20;;;14.20;75.00;;;;;;5038761;28;20040;-79
2021/11/01 01:49:34;;;;;;;1.92;1.20;;;14.20;75.10;;;;;;5055529;28;20025;-78
2021/11/01 01:52:00;;;;;;;2.33;1.33;;;14.20;75.10;;;;;;5055143;28;20036;-79
2021/11/01 01:54:26;;;;;;;2.78;1.40;;;14.20;75.10;;;;;;5039244;28;20025;-78
2021/11/01 01:56:53;;;;;;;1.90;1.20;;;14.10;75.00;;;;;;5055877;28;20112;-79
2021/11/01 01:59:19;;;;;;;2.33;1.30;;;14.10;75.00;;;;;;5055213;28;20021;-79
2021/11/01 02:01:49;;;;;;;2.92;1.20;;;14.10;75.00;;;;;;5055128;28;20062;-78
2021/11/01 02:04:27;;;;;;;2.53;1.27;;;14.10;75.10;;;;;;5038907;28;20499;-79
2021/11/01 02:07:14;;;;;;;2.50;1.35;;;14.00;75.10;;;;;;5055760;28;20036;-79
2021/11/01 02:10:04;;;;;;;1.48;1.08;;;14.00;75.10;;;;;;5056308;28;20024;-78
2021/11/01 02:12:46;;;;;;;1.25;1.00;;;14.00;75.10;;;;;;5055358;28;20102;-79
2021/11/01 02:15:19;;;;;;;2.13;1.30;;;14.00;75.10;;;;;;5055040;28;20036;-78
2021/11/01 02:17:48;;;;;;;2.63;1.33;;;14.00;75.10;;;;;;5072181;28;20049;-79
2021/11/01 02:20:41;;;;;;;1.70;1.08;;;14.00;75.10;;;;;;5071860;28;20458;-79
2021/11/01 02:23:23;;;;;;;2.55;1.20;;;13.90;75.20;;;;;;5054345;28;20131;-81
2021/11/01 02:25:53;;;;;;;1.20;1.00;;;13.90;75.20;;;;;;5055141;28;20029;-79
2021/11/01 02:28:30;;;;;;;2.08;1.25;;;13.90;75.10;;;;;;5055058;28;20040;-78
2021/11/01 02:30:57;;;;;;;1.98;1.05;;;13.90;75.20;;;;;;5072031;28;20033;-79
2021/11/01 02:33:24;;;;;;;1.05;0.80;;;13.90;75.20;;;;;;5054630;28;20037;-78
2021/11/01 02:35:51;;;;;;;1.80;1.08;;;13.90;75.30;;;;;;5055516;28;20500;-81
2021/11/01 02:38:20;;;;;;;2.03;1.00;;;13.80;75.20;;;;;;5070266;28;20469;-79
2021/11/01 02:40:47;;;;;;;1.55;0.90;;;13.80;75.20;;;;;;5072083;28;20029;-79
2021/11/01 02:43:14;;;;;;;2.45;1.00;;;13.80;75.20;;;;;;5054240;28;20040;-78
2021/11/01 02:45:40;;;;;;;1.38;0.90;;;13.80;75.20;;;;;;5087936;28;20029;-78
2021/11/01 02:48:06;;;;;;;1.83;1.00;;;13.70;75.20;;;;;;5054485;28;20380;-78
2021/11/01 02:50:33;;;;;;;1.65;1.13;;;13.80;75.30;;;;;;5054393;28;20048;-78
2021/11/01 02:52:59;;;;;;;2.40;1.10;;;13.70;75.20;;;;;;5055352;28;20032;-79
2021/11/01 02:55:25;;;;;;;1.48;1.10;;;13.70;75.20;;;;;;5054295;28;20419;-79
2021/11/01 02:57:52;;;;;;;1.45;1.00;;;13.70;75.20;;;;;;5054699;28;20033;-79
2021/11/01 03:00:21;;;;;;;2.20;1.10;;;13.70;75.30;;;;;;5037834;28;20046;-78
2021/11/01 03:02:48;;;;;;;1.92;1.20;;;13.70;75.30;;;;;;5054048;28;20481;-78
2021/11/01 03:05:17;;;;;;;1.70;1.08;;;13.70;75.30;;;;;;5054066;28;20029;-78
2021/11/01 03:07:44;;;;;;;1.55;1.00;;;13.60;75.20;;;;;;5054768;28;20032;-79
2021/11/01 03:10:11;;;;;;;1.92;1.15;;;13.60;75.20;;;;;;5053644;28;20045;-78
2021/11/01 03:12:42;;;;;;;2.25;1.23;;;13.70;75.30;;;;;;5055202;28;20033;-78
2021/11/01 03:15:11;;;;;;;1.35;0.90;;;13.60;75.30;;;;;;5054251;28;20029;-79
2021/11/01 03:17:40;;;;;;;1.10;1.00;;;13.60;75.30;;;;;;5054352;28;20124;-80
2021/11/01 03:20:19;;;;;;;2.67;1.20;;;13.60;75.30;;;;;;5053927;28;20056;-79
2021/11/01 03:22:50;;;;;;;1.48;1.15;;;13.50;75.40;;;;;;5053448;28;20041;-78
2021/11/01 03:25:22;;;;;;;1.70;1.00;;;13.60;75.40;;;;;;5054498;28;20033;-78
2021/11/01 03:27:55;;;;;;;1.20;1.00;;;13.50;75.30;;;;;;5037863;28;20419;-79
2021/11/01 03:30:22;;;;;;;2.35;1.10;;;13.50;75.30;;;;;;5037308;28;20040;-79
2021/11/01 03:32:48;;;;;;;1.52;1.23;;;13.50;75.30;;;;;;5053587;28;20469;-79
2021/11/01 03:35:16;;;;;;;2.53;1.10;;;13.50;75.40;;;;;;5054326;28;20072;-78
2021/11/01 03:37:44;;;;;;;0.93;0.93;;;13.50;75.40;;;;;;5055060;28;20024;-78
2021/11/01 03:40:15;;;;;;;1.40;1.00;;;13.40;75.40;;;;;;5053662;28;20029;-79
2021/11/01 03:42:42;;;;;;;1.38;1.10;;;13.50;75.40;;;;;;5053552;28;20501;-78
2021/11/01 03:45:09;;;;;;;1.95;1.20;;;13.40;75.40;;;;;;5054081;28;20163;-78
2021/11/01 03:47:48;;;;;;;1.80;1.00;;;13.40;75.40;;;;;;5053251;28;20370;-78
2021/11/01 03:52:49;;;;;;;;;;;13.40;75.40;;;;;;5054711;28;20033;-78
2021/11/01 03:55:15;;;;;;;1.63;1.00;;;13.40;75.30;;;;;;5087087;28;19909;-79
2021/11/01 03:57:42;;;;;;;2.28;0.90;;;13.30;75.20;;;;;;5036692;28;20037;-80
2021/11/01 04:00:09;;;;;;;1.38;1.00;;;13.30;75.40;;;;;;5053180;28;20037;-80
2021/11/01 04:02:35;;;;;;;1.05;0.88;;;13.30;75.40;;;;;;5052837;28;20048;-82
2021/11/01 04:05:01;;;;;;;1.23;0.95;;;13.30;75.60;;;;;;5053101;28;20033;-79
2021/11/01 04:07:28;;;;;;;1.10;1.00;;;13.30;75.50;;;;;;5053768;28;20541;-79
2021/11/01 04:09:54;;;;;;;1.80;1.10;;;13.30;75.50;;;;;;5052911;28;20484;-79
2021/11/01 04:12:20;;;;;;;1.00;0.90;;;13.30;75.50;;;;;;5052908;28;20040;-79
2021/11/01 04:14:50;;;;;;;1.73;1.02;;;13.30;75.50;;;;;;5053002;28;20029;-79
2021/11/01 04:17:25;;;;;;;2.78;1.10;;;13.30;75.60;;;;;;5053039;28;20033;-78
2021/11/01 04:20:10;;;;;;;2.72;1.23;;;13.30;75.50;;;;;;5053911;28;20065;-78
2021/11/01 04:22:37;;;;;;;1.05;0.90;;;13.30;75.50;;;;;;5052501;28;20504;-79
2021/11/01 04:25:04;;;;;;;1.67;1.02;;;13.20;75.40;;;;;;5053391;28;20372;-79
2021/11/01 04:27:30;;;;;;;1.10;1.00;;;13.20;75.50;;;;;;5052439;28;20025;-79
2021/11/01 04:29:58;;;;;;;1.73;1.33;;;13.20;75.50;;;;;;5035887;28;20116;-78
2021/11/01 04:35:00;;;;;;;1.50;1.05;;;13.20;75.60;;;;;;5053717;28;20056;-79
2021/11/01 04:37:28;;;;;;;1.10;0.77;;;13.20;75.60;;;;;;5054007;28;20377;-79
2021/11/01 04:42:46;;;;;;;2.03;1.25;;;13.20;75.60;;;;;;5053434;28;20056;-80
2021/11/01 04:53:24;;;;;;;2.00;1.00;;;13.10;75.50;;;;;;5053239;28;20061;-80
2021/11/01 04:55:51;;;;;;;1.80;0.95;;;13.10;75.60;;;;;;5053659;28;20033;-79
2021/11/01 04:58:16;;;;;;;2.17;1.10;;;13.10;75.60;;;;;;5052204;28;20435;-79
2021/11/01 05:00:45;;;;;;;2.60;1.23;;;13.10;75.60;;;;;;5053083;28;20037;-79
2021/11/01 05:03:20;;;;;;;1.20;1.02;;;13.10;75.70;;;;;;5071984;28;20111;-78
2021/11/01 05:05:46;;;;;;;1.10;1.00;;;13.10;75.60;;;;;;5058162;28;20037;-79
2021/11/01 05:08:14;;;;;;;1.35;1.00;;;13.10;75.60;;;;;;5040005;28;20033;-78
2021/11/01 05:10:45;;;;;;;1.65;1.10;;;13.10;75.60;;;;;;5056528;28;20032;-79
2021/11/01 05:13:24;;;;;;;0.90;0.90;;;13.10;75.60;;;;;;5056285;28;20146;-79
2021/11/01 05:15:57;;;;;;;1.20;1.10;;;13.00;75.60;;;;;;5072998;28;20032;-79
2021/11/01 05:18:30;;;;;;;3.05;1.20;;;13.00;75.60;;;;;;5057815;28;20040;-78
2021/11/01 05:21:08;;;;;;;1.58;1.05;;;13.00;75.60;;;;;;5039471;28;20054;-78
2021/11/01 05:23:39;;;;;;;1.38;0.95;;;13.00;75.60;;;;;;5071044;28;20098;-80
2021/11/01 05:26:10;;;;;;;2.25;1.10;;;13.00;75.70;;;;;;5056072;28;20033;-79
2021/11/01 05:28:43;;;;;;;1.75;1.00;;;13.00;75.70;;;;;;5056752;28;20029;-79
2021/11/01 05:31:20;;;;;;;2.05;1.20;;;13.00;75.60;;;;;;5056666;28;20033;-78
2021/11/01 05:36:27;;;;;;;2.35;1.10;;;13.00;75.70;;;;;;5055749;28;20032;-79
2021/11/01 05:38:53;;;;;;;1.50;1.10;;;13.00;75.70;;;;;;5072652;28;20044;-78
2021/11/01 05:41:20;;;;;;;1.65;1.20;;;13.00;75.80;;;;;;5055905;28;20079;-79
2021/11/01 05:43:47;;;;;;;1.75;1.20;;;12.90;75.70;;;;;;5055431;28;20037;-80
2021/11/01 05:46:13;;;;;;;1.27;1.15;;;12.90;75.70;;;;;;5039231;28;20029;-78
2021/11/01 05:48:46;;;;;;;1.45;1.10;;;12.90;75.70;;;;;;5055417;28;20029;-80
2021/11/01 05:51:15;;;;;;;1.83;1.02;;;12.90;75.70;;;;;;5056158;28;20032;-78
2021/11/01 05:53:42;;;;;;;1.17;1.00;;;12.90;75.70;;;;;;5072375;28;20480;-78
2021/11/01 05:59:09;;;;;;;1.27;1.10;;;12.90;75.70;;;;;;5056613;28;20036;-81
2021/11/01 06:14:29;;;;;;;1.73;1.10;;;12.80;75.80;;;;;;5055947;28;20052;-80
2021/11/01 06:16:55;;;;;;;1.17;0.85;;;12.80;75.70;;;;;;5054762;28;20079;-79
2021/11/01 06:19:21;;;;;;;1.33;1.00;;;12.80;75.80;;;;;;5071862;28;20041;-79
2021/11/01 06:21:48;;;;;;;1.77;1.00;;;12.80;75.80;;;;;;5054522;28;20435;-80
2021/11/01 06:24:36;;;;;;;1.23;0.88;;;12.80;75.80;;;;;;5055647;28;20037;-81
2021/11/01 06:27:01;;;;;;;2.88;1.20;;;12.80;75.80;;;;;;5071609;28;20037;-80
2021/11/01 06:29:34;;;;;;;1.88;1.20;;;12.80;75.70;;;;;;5054864;28;20428;-80
2021/11/01 06:32:13;;;;;;;1.63;1.13;;;12.80;75.80;;;;;;5055036;28;20048;-81
2021/11/01 06:52:35;;;;;;;1.92;1.10;;;12.70;75.70;;;;;;5054663;28;20068;-80
2021/11/01 07:15:32;;;;;;;1.58;1.00;;;12.70;76.00;;;;;;5053944;28;19909;-78
2021/11/01 07:18:02;;;;;;;2.63;1.10;;;12.70;75.90;;;;;;5054108;28;20385;-79
2021/11/01 09:25:13;;;;;;;1.48;1.05;;;13.00;76.30;;;;;;5053450;28;20029;-78
2021/11/01 09:27:42;;;;;;;1.70;1.15;;;13.10;76.30;;;;;;5053846;28;20461;-78
2021/11/01 09:30:34;;;;;;;2.90;1.40;;;13.10;76.30;;;;;;5051572;28;20021;-75
2021/11/01 09:43:20;;;;;;;2.30;1.15;;;13.20;76.30;;;;;;5051966;28;20362;-78
2021/11/01 09:45:47;;;;;;;3.05;1.45;;;13.20;76.30;;;;;;5068220;28;20075;-80
2021/11/01 09:48:13;;;;;;;1.85;1.23;;;13.20;76.30;;;;;;5036722;28;20027;-77
2021/11/01 09:50:39;;;;;;;3.20;1.33;;;13.30;76.40;;;;;;5055529;28;20530;-77
2021/11/01 09:54:07;;;;;;;1.42;1.20;;;13.30;76.30;;;;;;5055502;28;20029;-78
2021/11/01 10:01:13;;;;;;;1.20;1.10;;;13.40;76.30;;;;;;5056157;28;20358;-77
2021/11/01 10:03:46;;;;;;;1.48;1.00;;;13.40;76.30;;;;;;5055452;28;20064;-77
2021/11/01 10:06:18;;;;;;;2.10;1.10;;;13.40;76.30;;;;;;5072788;28;20037;-77
2021/11/01 10:08:59;;;;;;;1.23;1.10;;;13.40;76.30;;;;;;5040226;28;20385;-77
2021/11/01 10:11:33;;;;;;;1.65;1.17;;;13.40;76.40;;;;;;5054941;28;20033;-77
2021/11/01 10:14:02;;;;;;;1.88;1.17;;;13.40;76.30;;;;;;5056175;28;20069;-77
2021/11/01 10:19:34;;;;;;;2.20;1.30;;;13.50;76.40;;;;;;5056311;28;20584;-78
2021/11/01 10:22:02;;;;;;;;;;;13.50;76.20;;;;;;5071952;28;20622;-77
2021/11/01 10:24:39;;;;;;;1.23;1.13;;;13.50;76.10;;;;;;5055938;28;19916;-77
2021/11/01 10:27:08;;;;;;;2.33;1.00;;;13.50;76.10;;;;;;5056397;28;20039;-77
2021/11/01 10:29:48;;;;;;;1.27;1.00;;;13.50;76.20;;;;;;5055983;28;20033;-78
2021/11/01 10:32:13;;;;;;;2.25;1.10;;;13.50;76.30;;;;;;5054758;28;20051;-77
2021/11/01 10:34:40;;;;;;;2.17;1.20;;;13.60;76.30;;;;;;5054788;28;20033;-76
2021/11/01 10:37:12;;;;;;;2.80;1.10;;;13.60;76.30;;;;;;5055456;28;20036;-76
2021/11/01 10:39:38;;;;;;;1.42;1.13;;;13.60;76.30;;;;;;5054901;28;20037;-77
2021/11/01 10:42:26;;;;;;;1.50;1.23;;;13.60;76.20;;;;;;5054820;28;20036;-78
2021/11/01 11:10:48;;;;;;;3.05;1.00;;;13.70;76.00;;;;;;5054842;28;20033;-76
2021/11/01 11:14:53;;;;;;;1.17;0.90;;;13.80;76.00;;;;;;5054909;28;20021;-77
2021/11/01 11:17:34;;;;;;;1.48;0.95;;;13.80;76.10;;;;;;5056068;28;20470;-78
2021/11/01 11:31:22;;;;;;;1.70;0.95;;;13.90;75.90;;;;;;5055183;28;20491;-76
2021/11/01 11:40:04;;;;;;;2.38;1.20;;;14.00;75.80;;;;;;5015842;28;20038;-77
2021/11/01 11:42:47;;;;;;;1.92;0.93;;;14.00;75.80;;;;;;5016173;28;20366;-77
2021/11/01 11:48:18;;;;;;;0.88;0.77;;;14.00;75.70;;;;;;5055115;28;20033;-76
2021/11/01 11:50:45;;;;;;;2.05;1.05;;;14.00;75.70;;;;;;5069657;28;20151;-77
2021/11/01 11:53:17;;;;;;;1.10;0.90;;;14.00;75.60;;;;;;5054116;28;20033;-77
2021/11/01 11:55:45;;;;;;;1.65;1.20;;;14.10;75.70;;;;;;5069977;28;20037;-78
2021/11/01 11:58:14;;;;;;;1.40;0.90;;;14.10;75.70;;;;;;5069903;28;20021;-78
2021/11/01 12:00:41;;;;;;;1.05;0.93;;;14.10;75.70;;;;;;5054601;28;20029;-78
2021/11/01 12:03:13;;;;;;;1.42;1.00;;;14.10;75.60;;;;;;5053005;28;20048;-77
2021/11/01 12:08:30;;;;;;;1.35;0.90;;;14.20;75.60;;;;;;5054589;28;20461;-78
2021/11/01 12:14:11;;;;;;;2.80;1.17;;;14.20;75.50;;;;;;5053872;28;20025;-77
2021/11/01 12:19:17;;;;;;;2.05;0.90;;;14.30;75.50;;;;;;5052816;28;20500;-78
2021/11/01 12:21:47;;;;;;;1.40;0.80;;;14.30;75.60;;;;;;5052783;28;20029;-77
2021/11/01 12:24:21;;;;;;;1.90;0.90;;;14.30;75.40;;;;;;5052428;28;20122;-76
2021/11/01 12:26:48;;;;;;;0.80;0.80;;;14.40;75.50;;;;;;5069665;28;20037;-76
2021/11/01 12:29:15;;;;;;;1.25;1.10;;;14.40;75.40;;;;;;5053215;28;20056;-77
2021/11/01 12:31:42;;;;;;;2.67;1.13;;;14.40;75.50;;;;;;5052704;28;20528;-77
2021/11/01 12:34:21;;;;;;;2.03;0.98;;;14.40;75.40;;;;;;5054087;28;20492;-78
2021/11/01 12:37:13;;;;;;;1.08;0.80;;;14.40;75.40;;;;;;5052722;28;20033;-78
2021/11/01 12:39:50;;;;;;;1.45;1.00;;;14.50;75.40;;;;;;5052474;28;20535;-75
2021/11/01 12:42:33;;;;;;;1.38;0.90;;;14.50;75.30;;;;;;5036006;28;20044;-77
2021/11/01 12:58:34;;;;;;;1.65;0.98;;;14.70;75.60;;;;;;5053454;28;20045;-76
2021/11/01 13:01:08;;;;;;;1.75;1.10;;;14.70;75.60;;;;;;5052444;28;20075;-76
2021/11/01 13:03:34;;;;;;;1.13;1.07;;;14.70;75.80;;;;;;5053253;28;20049;-76
2021/11/01 13:06:07;;;;;;;1.48;1.17;;;14.80;75.70;;;;;;5035493;28;20104;-77
2021/11/01 13:08:47;;;;;;;3.17;1.42;;;14.70;75.60;;;;;;5053057;28;20041;-77
2021/11/01 13:11:39;;;;;;;1.45;1.00;;;14.80;75.70;;;;;;5052456;28;20029;-77
2021/11/01 13:19:48;;;;;;;0.82;0.80;;;14.90;75.80;;;;;;5053296;28;20033;-77
2021/11/01 13:22:24;;;;;;;1.10;1.00;;;14.90;75.70;;;;;;5051547;28;20509;-76
2021/11/01 13:35:19;;;;;;;1.38;1.00;;;15.10;75.70;;;;;;5058558;28;20484;-77
2021/11/01 13:37:56;;;;;;;1.42;0.95;;;15.10;75.70;;;;;;5055737;28;20435;-77
2021/11/01 13:40:22;;;;;;;1.65;0.82;;;15.10;75.80;;;;;;5056070;28;20090;-78
2021/11/01 13:42:58;;;;;;;0.93;0.70;;;15.20;75.70;;;;;;5055459;28;20033;-78
2021/11/01 13:45:25;;;;;;;1.80;0.95;;;15.20;75.80;;;;;;5055918;28;20064;-77
2021/11/01 13:47:56;;;;;;;1.48;0.90;;;15.30;75.70;;;;;;5055557;28;20441;-77
2021/11/01 13:50:26;;;;;;;2.85;0.90;;;15.30;75.70;;;;;;5071995;28;20121;-77
2021/11/01 13:53:10;;;;;;;1.33;0.90;;;15.30;75.60;;;;;;5055723;28;20187;-76
2021/11/01 13:55:48;;;;;;;2.45;1.10;;;15.40;75.60;;;;;;5071964;28;20025;-76
2021/11/01 15:04:56;;;;;;;2.10;1.30;;;15.80;75.00;;;;;;5055592;28;20041;-78
2021/11/01 15:35:18;;;;;;;1.75;1.02;;;16.10;74.60;;;;;;5055374;28;20033;-78
2021/11/01 16:18:33;;;;;;;1.60;0.80;;;16.00;73.90;;;;;;5054259;28;20033;-78
2021/11/01 16:21:00;;;;;;;1.75;0.98;;;16.00;73.90;;;;;;5053779;28;20029;-77
2021/11/01 16:25:57;;;;;;;1.00;0.77;;;16.00;73.90;;;;;;5054586;28;20072;-77
2021/11/01 16:28:24;;;;;;;1.80;1.20;;;16.00;73.90;;;;;;5052992;28;20091;-77
2021/11/01 16:31:10;;;;;;;3.08;1.00;;;16.00;73.90;;;;;;5053461;28;20037;-77
2021/11/01 16:33:43;;;;;;;1.33;1.08;;;16.00;73.90;;;;;;5052608;28;20033;-77
2021/11/01 16:36:20;;;;;;;2.45;1.00;;;15.90;73.80;;;;;;5053309;28;20031;-78
2021/11/01 16:38:51;;;;;;;1.52;1.13;;;15.90;73.70;;;;;;5052805;28;20082;-78
2021/11/01 16:41:20;;;;;;;1.52;0.85;;;15.90;73.70;;;;;;5036715;28;20029;-77
2021/11/01 16:43:50;;;;;;;1.50;0.90;;;15.90;73.70;;;;;;5035815;28;20038;-78
2021/11/01 16:46:16;;;;;;;1.30;1.00;;;15.80;73.70;;;;;;5052346;28;20086;-78
2021/11/01 16:48:45;;;;;;;1.60;1.10;;;15.90;73.70;;;;;;5052617;28;20408;-79
2021/11/01 16:51:12;;;;;;;1.23;1.00;;;15.80;73.70;;;;;;5052297;28;20033;-77
2021/11/01 16:53:44;;;;;;;1.00;0.90;;;15.80;73.60;;;;;;5052257;28;20029;-77
2021/11/01 16:59:04;;;;;;;0.77;0.77;;;15.80;73.70;;;;;;5052397;28;20087;-76
2021/11/01 17:01:30;;;;;;;1.00;0.80;;;15.70;73.60;;;;;;5052411;28;20048;-81
2021/11/01 17:04:01;;;;;;;1.45;1.05;;;15.70;73.60;;;;;;5052247;28;20036;-77
2021/11/01 17:06:39;;;;;;;1.63;0.95;;;15.70;73.60;;;;;;5052801;28;20426;-77
2021/11/01 17:25:24;;;;;;;0.98;0.93;;;15.50;73.50;;;;;;5051920;28;20037;-77
2021/11/01 17:36:27;;;;;;;1.38;1.00;;;15.50;73.60;;;;;;5048431;28;20119;-76
2021/11/01 18:40:24;;;;;;;1.35;0.98;;;14.90;73.70;;;;;;5055336;28;20037;-77
2021/11/01 18:51:10;;;;;;;0.70;0.70;;;14.80;73.70;;;;;;5054652;28;20509;-78
2021/11/01 18:53:49;;;;;;;0.88;0.85;;;14.80;73.70;;;;;;5054916;28;20037;-76
2021/11/01 18:56:15;;;;;;;0.75;0.75;;;14.80;73.80;;;;;;5055208;28;20403;-77
2021/11/01 18:58:42;;;;;;;0.70;0.70;;;14.70;73.70;;;;;;5054183;28;20021;-78
2021/11/01 19:01:11;;;;;;;1.45;1.00;;;14.80;73.80;;;;;;5053591;28;20037;-77
2021/11/01 19:03:43;;;;;;;1.00;0.90;;;14.80;73.80;;;;;;5053587;28;20183;-78
2021/11/01 20:14:05;;;;;;;0.90;0.90;;;14.10;73.80;;;;;;5056099;28;20037;-79
2021/11/01 21:27:07;;;;;;;1.50;1.40;;;13.30;73.80;;;;;;5052877;28;20033;-78
2021/11/01 21:29:35;;;;;;;1.73;1.50;;;13.30;73.90;;;;;;5051718;28;20033;-77
2021/11/01 21:32:03;;;;;;;1.73;1.52;;;13.20;73.90;;;;;;5052100;28;20459;-76
2021/11/01 21:34:35;;;;;;;1.80;1.50;;;13.20;73.90;;;;;;5051573;28;20032;-80
2021/11/01 21:37:03;;;;;;;1.90;1.52;;;13.20;73.90;;;;;;5053583;28;20040;-77
2021/11/01 21:39:29;;;;;;;1.70;1.58;;;13.20;73.80;;;;;;5051925;28;20120;-78
2021/11/01 21:41:55;;;;;;;1.65;1.45;;;13.20;73.80;;;;;;5053274;28;20496;-76
2021/11/01 21:44:21;;;;;;;1.88;1.52;;;13.20;73.80;;;;;;5036664;28;20037;-77
2021/11/01 21:46:48;;;;;;;1.70;1.48;;;13.10;73.80;;;;;;5056235;28;20190;-79
2021/11/01 21:49:14;;;;;;;1.80;1.55;;;13.10;73.80;;;;;;5055742;28;20473;-77
2021/11/01 21:51:41;;;;;;;1.63;1.52;;;13.10;73.80;;;;;;5055594;28;20037;-77
2021/11/01 21:54:23;;;;;;;1.50;1.40;;;13.00;73.80;;;;;;5073071;28;20037;-78
2021/11/01 22:18:33;;;;;;;1.40;1.30;;;12.90;73.90;;;;;;5055981;28;20094;-78
2021/11/01 22:21:03;;;;;;;1.52;1.30;;;12.80;74.00;;;;;;5071837;28;20469;-77
2021/11/01 22:23:46;;;;;;;1.55;1.30;;;12.80;74.00;;;;;;5055303;28;20135;-77
2021/11/01 22:26:52;;;;;;;1.38;1.20;;;12.80;74.00;;;;;;5057185;28;20116;-77
2021/11/01 22:38:12;;;;;;;1.40;1.30;;;12.70;74.10;;;;;;5055654;28;20068;-77
2021/11/01 22:43:04;;;;;;;1.30;1.20;;;12.60;74.10;;;;;;5057643;28;20052;-77
2021/11/01 22:45:37;;;;;;;1.20;1.10;;;12.60;74.10;;;;;;5055164;28;20466;-77
2021/11/01 22:55:36;;;;;;;1.40;1.30;;;12.50;74.10;;;;;;5057419;28;20037;-77
2021/11/01 22:59:14;;;;;;;1.35;1.25;;;12.50;74.10;;;;;;5055225;28;20393;-77
2021/11/01 23:01:41;;;;;;;2.13;1.35;;;12.50;74.20;;;;;;5037743;28;20021;-77
2021/11/01 23:31:25;;;;;;;2.20;1.60;;;12.40;74.20;;;;;;5054294;28;20041;-77
2021/11/01 23:31:46;;;;;;;1.77;1.50;;;12.30;74.20;;;;;;5054550;28;20055;-78
2021/11/01 23:34:14;;;;;;;1.40;1.20;;;12.30;74.20;;;;;;5040261;28;20140;-77
2021/11/01 23:36:41;;;;;;;1.50;1.30;;;12.20;74.20;;;;;;5053403;28;20026;-77
2021/11/01 23:39:08;;;;;;;1.40;1.30;;;12.20;74.30;;;;;;5053821;28;20048;-78
2021/11/01 23:41:36;;;;;;;3.38;1.60;;;12.20;74.30;;;;;;5053526;28;20028;-78
2021/11/01 23:44:02;;;;;;;1.90;1.30;;;12.20;74.30;;;;;;5037243;28;20065;-77
2021/11/01 23:46:28;;;;;;;1.58;1.40;;;12.20;74.30;;;;;;5054230;28;20029;-79
2021/11/01 23:48:54;;;;;;;1.90;1.70;;;12.20;74.30;;;;;;5053565;28;20033;-77
2021/11/01 23:51:30;;;;;;;3.47;1.40;;;12.10;74.20;;;;;;5037798;28;20036;-77
2021/11/01 23:56:42;;;;;;;1.52;1.30;;;12.10;74.30;;;;;;5055053;28;20104;-77
2021/11/01 23:59:08;;;;;;;3.35;1.65;;;12.10;74.20;;;;;;5054422;28;20020;-77
